Time;durP1;ratioP1;P1;durP2;ratioP2;P2;SDS_P1;SDS_P2;PMS_P1;PMS_P2;Temp;Humidity;BMP_temperature;BMP_pressure;BME280_temperature;BME280_humidity;BME280_pressure;Samples;Min_cycle;Max_cycle;Signal;HPM_P1;HPM_P2
2022/03/11 00:00:57;;;;;;;9.63;8.18;;;;;;;;;;5032729;28;20053;-82
2022/03/11 00:03:23;;;;;;;10.00;8.23;;;;;;;;;;5021857;28;20054;-82
2022/03/11 00:05:50;;;;;;;9.45;8.38;;;;;;;;;;5024788;28;20038;-82
2022/03/11 00:08:16;;;;;;;9.57;8.50;;;;;;;;;;5023749;28;20065;-82
2022/03/11 00:10:42;;;;;;;9.45;8.45;;;;;;;;;;5008205;28;20141;-82
2022/03/11 00:13:08;;;;;;;8.85;7.68;;;;;;;;;;5018947;28;20038;-82
2022/03/11 00:15:35;;;;;;;9.75;7.95;;;;;;;;;;5026873;28;20051;-82
2022/03/11 00:18:01;;;;;;;10.40;8.13;;;;;;;;;;5029346;28;20041;-82
2022/03/11 00:20:27;;;;;;;9.02;8.13;;;;;;;;;;5023319;28;20046;-82
2022/03/11 00:22:54;;;;;;;10.00;8.98;;;;;;;;;;5035141;28;20092;-82
2022/03/11 00:25:20;;;;;;;8.75;7.82;;;;;;;;;;5028725;28;20069;-82
2022/03/11 00:27:47;;;;;;;9.65;8.48;;;;;;;;;;5023090;28;20076;-82
2022/03/11 00:30:13;;;;;;;9.95;8.90;;;;;;;;;;5029452;28;20037;-82
2022/03/11 00:32:40;;;;;;;11.18;9.18;;;;;;;;;;5021006;28;20328;-82
2022/03/11 00:35:08;;;;;;;9.52;8.25;;;;;;;;;;5018683;28;20042;-82
2022/03/11 00:37:35;;;;;;;9.43;8.45;;;;;;;;;;5015177;28;20061;-82
2022/03/11 00:40:01;;;;;;;9.43;8.40;;;;;;;;;;5029742;28;20034;-82
2022/03/11 00:42:27;;;;;;;10.82;8.88;;;;;;;;;;5025648;28;20476;-82
2022/03/11 00:44:53;;;;;;;9.18;8.27;;;;;;;;;;5027674;28;20111;-82
2022/03/11 00:47:19;;;;;;;10.18;9.07;;;;;;;;;;5037613;28;20033;-82
2022/03/11 00:49:45;;;;;;;9.52;8.52;;;;;;;;;;5030719;28;20552;-82
2022/03/11 00:52:11;;;;;;;8.88;7.97;;;;;;;;;;5017993;28;20046;-81
2022/03/11 00:54:38;;;;;;;10.38;8.73;;;;;;;;;;5024137;28;20087;-82
2022/03/11 00:57:04;;;;;;;9.70;8.27;;;;;;;;;;5019820;28;20056;-81
2022/03/11 00:59:30;;;;;;;10.60;9.10;;;;;;;;;;5019920;28;20049;-81
2022/03/11 01:01:56;;;;;;;11.32;8.98;;;;;;;;;;5031281;28;20046;-82
2022/03/11 01:04:22;;;;;;;9.45;8.45;;;;;;;;;;5026708;28;20103;-82
2022/03/11 01:06:48;;;;;;;9.68;8.70;;;;;;;;;;5018832;28;20069;-82
2022/03/11 01:09:14;;;;;;;11.00;9.10;;;;;;;;;;5031125;28;20046;-82
2022/03/11 01:11:41;;;;;;;10.23;8.98;;;;;;;;;;5027296;28;20086;-82
2022/03/11 01:14:07;;;;;;;9.50;8.50;;;;;;;;;;5035417;28;20044;-82
2022/03/11 01:16:33;;;;;;;9.85;8.85;;;;;;;;;;5017903;28;20490;-83
2022/03/11 01:18:59;;;;;;;10.18;8.73;;;;;;;;;;5036735;28;20080;-82
2022/03/11 01:21:25;;;;;;;11.30;8.75;;;;;;;;;;5017962;28;20184;-82
2022/03/11 01:23:53;;;;;;;10.35;8.95;;;;;;;;;;5025328;28;20049;-82
2022/03/11 01:26:19;;;;;;;13.82;8.30;;;;;;;;;;5028669;28;20063;-82
2022/03/11 01:28:45;;;;;;;11.63;9.32;;;;;;;;;;5026812;28;20116;-82
2022/03/11 01:31:12;;;;;;;10.23;9.18;;;;;;;;;;5022421;28;20424;-82
2022/03/11 01:33:42;;;;;;;10.30;9.23;;;;;;;;;;5020268;28;20066;-82
2022/03/11 01:36:09;;;;;;;9.80;8.80;;;;;;;;;;5014853;28;20057;-82
2022/03/11 01:38:35;;;;;;;10.77;9.18;;;;;;;;;;5021384;28;20053;-82
2022/03/11 01:41:01;;;;;;;9.85;8.85;;;;;;;;;;5026703;28;20053;-82
2022/03/11 01:43:28;;;;;;;10.02;9.02;;;;;;;;;;5017286;28;20045;-82
2022/03/11 01:45:54;;;;;;;10.50;8.73;;;;;;;;;;5019044;28;20049;-82
2022/03/11 01:48:20;;;;;;;11.25;8.98;;;;;;;;;;5028389;28;20133;-82
2022/03/11 01:50:47;;;;;;;10.80;9.68;;;;;;;;;;5025637;28;20100;-82
2022/03/11 01:53:13;;;;;;;10.85;9.10;;;;;;;;;;5027624;28;20056;-82
2022/03/11 01:55:39;;;;;;;10.63;9.35;;;;;;;;;;5018719;28;20143;-81
2022/03/11 01:58:06;;;;;;;11.05;9.13;;;;;;;;;;5024592;28;20058;-82
2022/03/11 02:00:35;;;;;;;11.77;9.30;;;;;;;;;;5034546;28;20049;-81
2022/03/11 02:03:01;;;;;;;10.40;9.23;;;;;;;;;;5018037;28;20046;-82
2022/03/11 02:05:28;;;;;;;10.85;9.13;;;;;;;;;;5030081;28;20405;-82
2022/03/11 02:07:54;;;;;;;11.90;9.63;;;;;;;;;;5022571;28;20058;-82
2022/03/11 02:10:20;;;;;;;10.00;9.00;;;;;;;;;;5016428;28;20041;-82
2022/03/11 02:12:46;;;;;;;10.35;9.27;;;;;;;;;;5014748;28;20042;-82
2022/03/11 02:15:12;;;;;;;10.75;9.60;;;;;;;;;;5024691;28;20058;-82
2022/03/11 02:17:38;;;;;;;10.70;9.20;;;;;;;;;;5025203;28;20045;-82
2022/03/11 02:20:05;;;;;;;10.70;9.40;;;;;;;;;;5017314;28;20140;-82
2022/03/11 02:22:35;;;;;;;13.15;9.15;;;;;;;;;;5036113;28;20094;-82
2022/03/11 02:25:01;;;;;;;10.00;9.00;;;;;;;;;;5040388;28;20497;-82
2022/03/11 02:27:27;;;;;;;10.85;9.75;;;;;;;;;;5023484;28;20049;-82
2022/03/11 02:29:53;;;;;;;10.50;9.27;;;;;;;;;;5024262;28;20046;-82
2022/03/11 02:32:19;;;;;;;11.00;9.68;;;;;;;;;;5016438;28;20520;-82
2022/03/11 02:34:45;;;;;;;10.35;9.18;;;;;;;;;;5025643;28;20107;-82
2022/03/11 02:37:11;;;;;;;11.55;9.30;;;;;;;;;;5013077;28;20049;-82
2022/03/11 02:39:37;;;;;;;9.63;8.50;;;;;;;;;;5024468;28;20049;-82
2022/03/11 02:42:05;;;;;;;10.05;9.05;;;;;;;;;;5028533;28;20441;-82
2022/03/11 02:44:31;;;;;;;10.65;9.15;;;;;;;;;;5013581;28;20551;-82
2022/03/11 02:46:59;;;;;;;10.38;9.23;;;;;;;;;;5029530;28;20772;-82
2022/03/11 02:49:27;;;;;;;11.55;8.90;;;;;;;;;;5018773;28;20053;-82
2022/03/11 02:51:53;;;;;;;10.50;9.40;;;;;;;;;;5023938;28;20099;-82
2022/03/11 02:54:20;;;;;;;10.68;9.35;;;;;;;;;;5018641;28;20065;-83
2022/03/11 02:56:48;;;;;;;10.68;9.57;;;;;;;;;;5014094;28;20054;-82
2022/03/11 02:59:14;;;;;;;10.20;9.07;;;;;;;;;;5014695;28;20059;-82
2022/03/11 03:01:40;;;;;;;11.38;9.43;;;;;;;;;;5031054;28;20053;-82
2022/03/11 03:04:06;;;;;;;10.55;9.45;;;;;;;;;;5019532;28;20406;-82
2022/03/11 03:06:32;;;;;;;10.55;9.45;;;;;;;;;;5013003;28;20073;-82
2022/03/11 03:08:58;;;;;;;11.30;9.60;;;;;;;;;;5038988;28;20095;-82
2022/03/11 03:11:24;;;;;;;10.80;9.60;;;;;;;;;;5020779;28;20046;-82
2022/03/11 03:13:50;;;;;;;9.60;8.52;;;;;;;;;;5020289;28;20053;-82
2022/03/11 03:16:16;;;;;;;12.15;9.10;;;;;;;;;;5020889;28;20120;-82
2022/03/11 03:18:42;;;;;;;11.77;9.93;;;;;;;;;;5015826;28;20053;-82
2022/03/11 03:21:08;;;;;;;10.65;9.52;;;;;;;;;;5013977;28;20045;-82
2022/03/11 03:23:34;;;;;;;10.30;9.20;;;;;;;;;;5021678;28;20077;-82
2022/03/11 03:26:01;;;;;;;11.93;9.43;;;;;;;;;;5012891;28;20138;-82
2022/03/11 03:28:27;;;;;;;12.38;8.82;;;;;;;;;;5024403;28;20164;-82
2022/03/11 03:30:53;;;;;;;10.43;9.30;;;;;;;;;;5020776;28;20050;-82
2022/03/11 03:33:19;;;;;;;10.35;8.25;;;;;;;;;;5023002;28;20058;-82
2022/03/11 03:35:45;;;;;;;11.85;9.00;;;;;;;;;;5017397;28;20118;-82
2022/03/11 03:38:11;;;;;;;11.02;9.07;;;;;;;;;;5022907;28;20126;-82
2022/03/11 03:40:37;;;;;;;10.40;9.30;;;;;;;;;;5027303;28;20048;-81
2022/03/11 03:43:04;;;;;;;9.52;8.55;;;;;;;;;;5026973;28;20070;-81
2022/03/11 03:45:31;;;;;;;10.15;9.02;;;;;;;;;;5017858;28;20417;-82
2022/03/11 03:47:59;;;;;;;9.30;8.30;;;;;;;;;;5030304;28;20042;-82
2022/03/11 03:50:25;;;;;;;9.68;8.38;;;;;;;;;;5025683;28;20091;-81
2022/03/11 03:52:51;;;;;;;9.77;8.77;;;;;;;;;;5035721;28;20084;-82
2022/03/11 03:55:17;;;;;;;10.00;8.77;;;;;;;;;;5038902;28;20088;-82
2022/03/11 03:57:43;;;;;;;9.65;8.55;;;;;;;;;;5019135;28;20077;-81
2022/03/11 04:00:09;;;;;;;10.05;8.52;;;;;;;;;;5024634;28;20084;-82
2022/03/11 04:02:37;;;;;;;10.23;8.60;;;;;;;;;;5028058;28;20112;-81
2022/03/11 04:05:06;;;;;;;11.48;8.73;;;;;;;;;;5041765;28;20155;-81
2022/03/11 04:07:32;;;;;;;9.60;8.18;;;;;;;;;;5037582;28;20049;-82
2022/03/11 04:09:58;;;;;;;9.38;8.30;;;;;;;;;;5030247;28;20485;-81
2022/03/11 04:12:24;;;;;;;10.25;8.68;;;;;;;;;;5026134;28;20052;-81
2022/03/11 04:14:50;;;;;;;10.55;8.95;;;;;;;;;;5024884;28;20535;-81
2022/03/11 04:17:16;;;;;;;9.55;8.55;;;;;;;;;;5028032;28;20041;-82
2022/03/11 04:19:42;;;;;;;9.73;8.60;;;;;;;;;;5024399;28;20049;-81
2022/03/11 04:22:08;;;;;;;10.90;8.30;;;;;;;;;;5031009;28;20045;-82
2022/03/11 04:24:35;;;;;;;9.95;8.60;;;;;;;;;;5039219;28;20052;-81
2022/03/11 04:27:01;;;;;;;10.13;9.00;;;;;;;;;;5053823;28;20048;-81
2022/03/11 04:29:27;;;;;;;9.70;8.45;;;;;;;;;;5032624;28;20111;-81
2022/03/11 04:31:54;;;;;;;9.77;8.52;;;;;;;;;;5022765;28;20061;-81
2022/03/11 04:34:21;;;;;;;10.85;8.55;;;;;;;;;;5032059;28;20049;-82
2022/03/11 04:36:47;;;;;;;10.23;8.75;;;;;;;;;;5028606;28;20065;-82
2022/03/11 04:39:15;;;;;;;10.52;8.45;;;;;;;;;;5039317;28;20149;-81
2022/03/11 04:41:42;;;;;;;10.73;9.25;;;;;;;;;;5042499;28;20053;-81
2022/03/11 04:44:08;;;;;;;9.98;8.88;;;;;;;;;;5029094;28;20052;-81
2022/03/11 04:46:34;;;;;;;10.15;9.02;;;;;;;;;;5037538;28;20038;-81
2022/03/11 04:49:00;;;;;;;11.75;8.77;;;;;;;;;;5017922;28;20492;-81
2022/03/11 04:51:26;;;;;;;10.48;9.02;;;;;;;;;;5025037;28;20053;-81
2022/03/11 04:53:53;;;;;;;10.55;8.90;;;;;;;;;;5009924;28;20077;-81
2022/03/11 04:56:19;;;;;;;10.18;8.70;;;;;;;;;;5024146;28;20053;-82
2022/03/11 04:58:45;;;;;;;10.30;9.20;;;;;;;;;;5019148;28;20058;-81
2022/03/11 05:01:11;;;;;;;11.50;9.18;;;;;;;;;;5026682;28;20052;-81
2022/03/11 05:03:37;;;;;;;10.00;8.70;;;;;;;;;;5018206;28;20120;-81
2022/03/11 05:06:03;;;;;;;11.48;9.05;;;;;;;;;;5035666;28;20107;-81
2022/03/11 05:08:29;;;;;;;9.95;8.95;;;;;;;;;;5039908;28;20512;-81
2022/03/11 05:10:55;;;;;;;10.73;9.00;;;;;;;;;;5016201;28;20042;-81
2022/03/11 05:13:22;;;;;;;10.48;9.35;;;;;;;;;;5033297;28;20041;-81
2022/03/11 05:15:48;;;;;;;10.00;8.93;;;;;;;;;;5034926;28;20041;-81
2022/03/11 05:18:14;;;;;;;11.70;9.65;;;;;;;;;;5025881;28;20112;-81
2022/03/11 05:20:40;;;;;;;10.98;9.10;;;;;;;;;;5022878;28;20042;-81
2022/03/11 05:23:06;;;;;;;11.88;9.00;;;;;;;;;;5018630;28;20119;-81
2022/03/11 05:25:32;;;;;;;10.07;8.93;;;;;;;;;;5019941;28;20497;-81
2022/03/11 05:27:58;;;;;;;12.82;10.43;;;;;;;;;;5017672;28;20064;-81
2022/03/11 05:30:24;;;;;;;13.55;8.98;;;;;;;;;;5017176;28;20085;-81
2022/03/11 05:32:50;;;;;;;10.50;9.23;;;;;;;;;;5027810;28;20087;-81
2022/03/11 05:35:16;;;;;;;10.95;9.43;;;;;;;;;;5040196;28;20044;-81
2022/03/11 05:37:43;;;;;;;11.55;9.55;;;;;;;;;;5027414;28;20037;-81
2022/03/11 05:40:09;;;;;;;11.20;9.77;;;;;;;;;;5025709;28;20091;-81
2022/03/11 05:42:35;;;;;;;10.82;9.25;;;;;;;;;;5022840;28;20045;-81
2022/03/11 05:45:02;;;;;;;11.27;10.10;;;;;;;;;;5037492;28;20056;-81
2022/03/11 05:47:28;;;;;;;11.52;9.73;;;;;;;;;;5028819;28;20045;-81
2022/03/11 05:49:54;;;;;;;11.15;9.77;;;;;;;;;;5019707;28;20045;-81
2022/03/11 05:52:21;;;;;;;11.93;9.93;;;;;;;;;;5030808;28;20072;-82
2022/03/11 05:54:47;;;;;;;11.65;9.80;;;;;;;;;;5027233;28;20037;-82
2022/03/11 05:57:13;;;;;;;12.80;9.63;;;;;;;;;;5012557;28;20185;-82
2022/03/11 05:59:39;;;;;;;11.05;9.88;;;;;;;;;;5028480;28;20053;-81
2022/03/11 06:02:08;;;;;;;11.48;9.65;;;;;;;;;;5022508;28;20037;-82
2022/03/11 06:04:37;;;;;;;11.82;10.57;;;;;;;;;;5015586;28;20107;-81
2022/03/11 06:07:04;;;;;;;11.63;10.43;;;;;;;;;;5043004;28;20057;-82
2022/03/11 06:09:30;;;;;;;12.73;9.82;;;;;;;;;;5019710;28;20095;-82
2022/03/11 06:11:56;;;;;;;13.05;10.55;;;;;;;;;;5013313;28;20136;-81
2022/03/11 06:14:22;;;;;;;12.52;10.30;;;;;;;;;;5027086;28;20128;-82
2022/03/11 06:16:48;;;;;;;12.57;10.88;;;;;;;;;;5031498;28;20547;-81
2022/03/11 06:19:14;;;;;;;12.95;10.10;;;;;;;;;;5016779;28;20184;-82
2022/03/11 06:21:40;;;;;;;12.40;10.52;;;;;;;;;;5013091;28;20050;-82
2022/03/11 06:24:07;;;;;;;12.30;10.35;;;;;;;;;;5026664;28;20046;-81
2022/03/11 06:26:33;;;;;;;11.93;10.60;;;;;;;;;;5017144;28;20037;-82
2022/03/11 06:28:59;;;;;;;10.27;8.90;;;;;;;;;;5031871;28;20042;-82
2022/03/11 06:31:25;;;;;;;13.20;10.88;;;;;;;;;;5029980;28;20069;-81
2022/03/11 06:33:52;;;;;;;12.45;10.40;;;;;;;;;;5030758;28;20056;-82
2022/03/11 06:36:18;;;;;;;11.90;10.23;;;;;;;;;;5035404;28;20379;-82
2022/03/11 06:38:44;;;;;;;13.52;10.40;;;;;;;;;;5016030;28;20050;-82
2022/03/11 06:41:11;;;;;;;14.00;10.82;;;;;;;;;;5014762;28;20068;-82
2022/03/11 06:43:37;;;;;;;13.57;10.88;;;;;;;;;;5023205;28;20563;-82
2022/03/11 06:46:03;;;;;;;12.68;10.30;;;;;;;;;;5020581;28;20108;-82
2022/03/11 06:48:29;;;;;;;14.13;11.23;;;;;;;;;;5016302;28;20425;-81
2022/03/11 06:50:55;;;;;;;12.70;11.32;;;;;;;;;;5023313;28;20038;-81
2022/03/11 06:53:25;;;;;;;11.65;10.45;;;;;;;;;;5028675;28;20501;-82
2022/03/11 06:55:53;;;;;;;14.10;11.15;;;;;;;;;;5013087;28;20077;-82
2022/03/11 06:58:19;;;;;;;14.35;11.68;;;;;;;;;;5013866;28;20046;-81
2022/03/11 07:00:45;;;;;;;12.02;10.77;;;;;;;;;;5011518;28;20220;-81
2022/03/11 07:03:11;;;;;;;14.32;11.20;;;;;;;;;;5022327;28;20462;-82
2022/03/11 07:05:37;;;;;;;13.35;10.98;;;;;;;;;;5020167;28;20095;-81
2022/03/11 07:08:03;;;;;;;14.23;11.55;;;;;;;;;;5020405;28;20046;-81
2022/03/11 07:10:29;;;;;;;13.90;10.85;;;;;;;;;;5013705;28;20132;-82
2022/03/11 07:12:55;;;;;;;14.25;11.30;;;;;;;;;;5023412;28;20147;-82
2022/03/11 07:15:21;;;;;;;13.07;10.63;;;;;;;;;;5012024;28;20057;-81
2022/03/11 07:17:48;;;;;;;13.07;11.15;;;;;;;;;;5025445;28;20055;-81
2022/03/11 07:20:15;;;;;;;12.73;10.73;;;;;;;;;;5017852;28;20045;-82
2022/03/11 07:22:43;;;;;;;12.63;10.27;;;;;;;;;;5023989;28;20041;-82
2022/03/11 07:25:09;;;;;;;12.25;10.70;;;;;;;;;;5027002;28;20052;-82
2022/03/11 07:27:35;;;;;;;12.30;10.43;;;;;;;;;;5028294;28;20493;-81
2022/03/11 07:30:01;;;;;;;14.30;11.23;;;;;;;;;;5018048;28;20044;-82
2022/03/11 07:32:27;;;;;;;12.48;10.90;;;;;;;;;;5021803;28;20056;-82
2022/03/11 07:34:53;;;;;;;11.75;10.38;;;;;;;;;;5018827;28;20463;-81
2022/03/11 07:37:21;;;;;;;12.15;10.63;;;;;;;;;;5022720;28;20097;-81
2022/03/11 07:39:47;;;;;;;12.93;10.55;;;;;;;;;;5019028;28;20134;-82
2022/03/11 07:42:13;;;;;;;12.05;10.48;;;;;;;;;;5016561;28;21333;-81
2022/03/11 07:44:41;;;;;;;12.88;10.77;;;;;;;;;;5028411;28;20084;-81
2022/03/11 07:47:07;;;;;;;13.48;10.50;;;;;;;;;;5021068;28;20144;-81
2022/03/11 07:49:34;;;;;;;13.63;10.25;;;;;;;;;;5023342;28;20486;-82
2022/03/11 07:52:02;;;;;;;13.13;10.43;;;;;;;;;;5028156;28;20050;-82
2022/03/11 07:54:28;;;;;;;13.80;11.73;;;;;;;;;;5015384;28;20053;-81
2022/03/11 07:56:54;;;;;;;12.57;10.55;;;;;;;;;;5013768;28;20116;-82
2022/03/11 07:59:20;;;;;;;13.13;10.80;;;;;;;;;;5020981;28;20046;-82
2022/03/11 08:01:47;;;;;;;12.20;9.95;;;;;;;;;;5017641;28;20425;-82
2022/03/11 08:04:13;;;;;;;14.68;10.90;;;;;;;;;;5012767;28;20504;-82
2022/03/11 08:07:06;;;;;;;12.60;10.40;;;;;;;;;;5012257;28;20095;-81
2022/03/11 08:09:32;;;;;;;11.98;10.27;;;;;;;;;;5017199;28;20049;-82
2022/03/11 08:11:58;;;;;;;12.48;10.73;;;;;;;;;;5029644;28;20107;-82
2022/03/11 08:14:24;;;;;;;11.35;9.80;;;;;;;;;;5021946;28;20037;-83
2022/03/11 08:16:59;;;;;;;14.73;11.23;;;;;;;;;;5015344;28;20560;-82
2022/03/11 08:19:30;;;;;;;13.93;10.13;;;;;;;;;;5023765;28;20106;-82
2022/03/11 08:21:56;;;;;;;14.05;10.77;;;;;;;;;;5025900;28;20052;-82
2022/03/11 08:24:23;;;;;;;11.40;9.88;;;;;;;;;;5016856;28;20409;-83
2022/03/11 08:26:49;;;;;;;14.05;10.25;;;;;;;;;;5021866;28;20092;-82
2022/03/11 08:29:16;;;;;;;12.60;10.90;;;;;;;;;;5018988;28;20505;-82
2022/03/11 08:32:09;;;;;;;13.70;10.77;;;;;;;;;;5026086;28;20895;-82
2022/03/11 08:34:35;;;;;;;16.45;10.32;;;;;;;;;;5025068;28;20053;-82
2022/03/11 08:37:01;;;;;;;12.55;10.93;;;;;;;;;;5021009;28;20034;-81
2022/03/11 08:39:27;;;;;;;11.35;9.98;;;;;;;;;;5039480;28;20045;-81
2022/03/11 08:41:53;;;;;;;13.45;10.20;;;;;;;;;;5020369;28;20042;-81
2022/03/11 08:44:19;;;;;;;13.80;10.52;;;;;;;;;;5030524;28;20049;-81
2022/03/11 08:46:45;;;;;;;11.68;9.55;;;;;;;;;;5033213;28;20124;-81
2022/03/11 08:49:11;;;;;;;11.32;9.88;;;;;;;;;;5032444;28;20133;-83
2022/03/11 08:51:37;;;;;;;13.73;10.80;;;;;;;;;;5031049;28;20042;-82
2022/03/11 08:54:03;;;;;;;12.48;10.70;;;;;;;;;;5023124;28;20128;-81
2022/03/11 08:56:30;;;;;;;14.43;10.48;;;;;;;;;;5014353;28;20112;-82
2022/03/11 08:58:56;;;;;;;12.82;10.90;;;;;;;;;;5031820;28;20064;-81
2022/03/11 09:01:23;;;;;;;12.80;10.82;;;;;;;;;;5032215;28;20152;-82
2022/03/11 09:03:49;;;;;;;12.13;9.25;;;;;;;;;;5021539;28;20049;-81
2022/03/11 09:06:15;;;;;;;12.55;10.07;;;;;;;;;;5016114;28;20037;-82
2022/03/11 09:08:41;;;;;;;11.35;9.95;;;;;;;;;;5019063;28;20088;-81
2022/03/11 09:11:07;;;;;;;13.27;10.43;;;;;;;;;;5024139;28;20038;-81
2022/03/11 09:13:36;;;;;;;14.30;10.82;;;;;;;;;;5014668;28;20443;-82
2022/03/11 09:16:03;;;;;;;12.30;10.85;;;;;;;;;;5023363;28;20108;-81
2022/03/11 09:18:29;;;;;;;11.65;9.68;;;;;;;;;;5015044;28;20132;-84
2022/03/11 09:20:56;;;;;;;11.20;9.90;;;;;;;;;;5021697;28;20041;-83
2022/03/11 09:23:24;;;;;;;12.02;9.82;;;;;;;;;;5018397;28;20053;-84
2022/03/11 09:25:50;;;;;;;11.73;9.38;;;;;;;;;;5018056;28;20449;-84
2022/03/11 09:28:16;;;;;;;11.02;9.45;;;;;;;;;;5025540;28;20077;-88
2022/03/11 09:30:42;;;;;;;11.68;9.15;;;;;;;;;;5029057;28;20088;-81
2022/03/11 09:33:08;;;;;;;14.00;11.18;;;;;;;;;;5024735;28;20061;-80
2022/03/11 09:35:37;;;;;;;11.88;10.38;;;;;;;;;;5027164;28;20048;-80
2022/03/11 09:38:03;;;;;;;12.88;10.90;;;;;;;;;;5019059;28;20121;-80
2022/03/11 09:40:29;;;;;;;11.77;9.77;;;;;;;;;;5018416;28;20581;-80
2022/03/11 09:42:56;;;;;;;13.65;10.18;;;;;;;;;;5024931;28;20044;-81
2022/03/11 09:45:23;;;;;;;14.20;10.60;;;;;;;;;;5023731;28;20116;-79
2022/03/11 09:47:49;;;;;;;12.95;10.55;;;;;;;;;;5017386;28;20046;-81
2022/03/11 09:50:15;;;;;;;11.70;9.63;;;;;;;;;;5024035;28;20050;-81
2022/03/11 09:52:42;;;;;;;12.55;10.43;;;;;;;;;;5023098;28;20042;-81
2022/03/11 09:55:12;;;;;;;12.30;10.70;;;;;;;;;;5026571;28;20049;-83
2022/03/11 09:57:38;;;;;;;11.27;9.40;;;;;;;;;;5025708;28;20068;-80
2022/03/11 10:00:05;;;;;;;11.07;9.27;;;;;;;;;;5023095;28;20086;-79
2022/03/11 10:02:32;;;;;;;12.23;9.63;;;;;;;;;;5020180;28;20571;-79
2022/03/11 10:04:57;;;;;;;12.18;9.68;;;;;;;;;;5024860;28;20037;-79
2022/03/11 10:07:25;;;;;;;11.23;9.13;;;;;;;;;;5025722;28;20102;-81
2022/03/11 10:09:51;;;;;;;12.20;10.13;;;;;;;;;;5019410;28;20135;-80
2022/03/11 10:12:22;;;;;;;12.90;10.57;;;;;;;;;;5016903;28;20045;-77
2022/03/11 10:14:57;;;;;;;12.00;10.75;;;;;;;;;;5019413;28;20041;-77
2022/03/11 10:17:23;;;;;;;13.05;10.90;;;;;;;;;;5018627;28;20060;-77
2022/03/11 10:19:55;;;;;;;13.02;10.57;;;;;;;;;;5024779;28;20042;-77
2022/03/11 10:22:24;;;;;;;12.82;10.88;;;;;;;;;;5014482;28;20061;-78
2022/03/11 10:24:50;;;;;;;12.02;10.52;;;;;;;;;;5019394;28;20049;-77
2022/03/11 10:27:16;;;;;;;13.95;10.77;;;;;;;;;;5021966;28;20038;-77
2022/03/11 10:29:43;;;;;;;13.50;10.20;;;;;;;;;;5017989;28;20041;-79
2022/03/11 10:32:09;;;;;;;15.73;10.57;;;;;;;;;;5016327;28;20045;-80
2022/03/11 10:34:35;;;;;;;11.63;9.75;;;;;;;;;;5015471;28;20084;-79
2022/03/11 10:37:09;;;;;;;12.38;10.00;;;;;;;;;;5023492;28;20045;-79
2022/03/11 10:39:37;;;;;;;12.93;10.68;;;;;;;;;;5016006;28;20062;-78
2022/03/11 10:42:16;;;;;;;13.07;11.27;;;;;;;;;;5018889;28;20037;-80
2022/03/11 10:44:54;;;;;;;14.23;11.38;;;;;;;;;;5021477;28;20096;-80
2022/03/11 10:47:21;;;;;;;11.95;10.65;;;;;;;;;;5016852;28;20448;-80
2022/03/11 10:49:49;;;;;;;12.70;10.55;;;;;;;;;;5016962;28;20343;-80
2022/03/11 10:52:15;;;;;;;12.90;11.30;;;;;;;;;;5021753;28;20053;-80
2022/03/11 10:54:43;;;;;;;12.52;11.00;;;;;;;;;;5019403;28;20056;-81
2022/03/11 10:57:10;;;;;;;12.95;11.00;;;;;;;;;;5024424;28;20149;-80
2022/03/11 10:59:36;;;;;;;13.05;11.60;;;;;;;;;;5023392;28;20120;-75
2022/03/11 11:02:03;;;;;;;12.20;10.82;;;;;;;;;;5022831;28;20119;-76
2022/03/11 11:04:29;;;;;;;14.73;11.50;;;;;;;;;;5016059;28;20054;-78
2022/03/11 11:06:56;;;;;;;13.80;11.52;;;;;;;;;;5014243;28;20490;-78
2022/03/11 11:09:23;;;;;;;14.32;10.93;;;;;;;;;;5024554;28;20046;-78
2022/03/11 11:11:50;;;;;;;12.82;10.65;;;;;;;;;;5015837;28;20474;-79
2022/03/11 11:14:16;;;;;;;14.82;10.95;;;;;;;;;;5015311;28;20053;-78
2022/03/11 11:16:43;;;;;;;12.13;9.98;;;;;;;;;;5015897;28;20390;-78
2022/03/11 11:19:13;;;;;;;13.48;10.18;;;;;;;;;;5015231;28;20512;-79
2022/03/11 11:21:40;;;;;;;12.43;10.80;;;;;;;;;;5025166;28;20105;-79
2022/03/11 11:24:10;;;;;;;12.93;11.35;;;;;;;;;;5025816;28;20447;-81
2022/03/11 11:26:39;;;;;;;12.70;11.18;;;;;;;;;;5012764;28;20034;-79
2022/03/11 11:29:05;;;;;;;13.90;11.68;;;;;;;;;;5015859;28;20049;-80
2022/03/11 11:31:32;;;;;;;11.95;9.93;;;;;;;;;;5022177;28;20064;-80
2022/03/11 11:33:58;;;;;;;13.25;11.77;;;;;;;;;;5018617;28;20055;-79
2022/03/11 11:36:33;;;;;;;14.20;11.68;;;;;;;;;;5031808;28;20049;-81
2022/03/11 11:39:06;;;;;;;13.32;11.13;;;;;;;;;;5025662;28;20045;-80
2022/03/11 11:41:33;;;;;;;;;;;;;;;;;;5025226;28;20057;-80
2022/03/11 11:44:03;;;;;;;12.65;10.73;;;;;;;;;;5022884;28;19937;-80
2022/03/11 11:46:34;;;;;;;15.77;10.00;;;;;;;;;;5022301;28;20052;-81
2022/03/11 11:49:01;;;;;;;12.00;10.80;;;;;;;;;;5043548;28;20088;-81
2022/03/11 11:51:30;;;;;;;13.30;11.50;;;;;;;;;;5029301;28;20048;-81
2022/03/11 11:53:57;;;;;;;12.15;10.85;;;;;;;;;;5015639;28;20049;-82
2022/03/11 11:56:31;;;;;;;12.52;11.23;;;;;;;;;;5009869;28;20397;-82
2022/03/11 11:58:56;;;;;;;;;;;;;;;;;;5024680;28;20048;-81
2022/03/11 12:01:42;;;;;;;11.90;10.70;;;;;;;;;;5023069;28;19925;-82
2022/03/11 12:04:27;;;;;;;14.90;11.32;;;;;;;;;;5018302;28;20132;-80
2022/03/11 12:06:56;;;;;;;13.05;10.90;;;;;;;;;;5021070;28;20123;-82
2022/03/11 12:12:11;;;;;;;13.43;11.02;;;;;;;;;;5014958;28;20041;-82
2022/03/11 12:14:56;;;;;;;12.90;11.55;;;;;;;;;;5022960;28;20156;-80
2022/03/11 12:17:40;;;;;;;12.90;11.50;;;;;;;;;;5021352;28;20133;-83
2022/03/11 12:20:22;;;;;;;12.20;10.90;;;;;;;;;;5020576;28;20529;-81
2022/03/11 12:22:57;;;;;;;11.52;10.00;;;;;;;;;;5021706;28;20053;-83
2022/03/11 12:25:25;;;;;;;13.48;11.23;;;;;;;;;;5032559;28;20072;-82
2022/03/11 12:28:02;;;;;;;13.82;11.45;;;;;;;;;;5026845;28;20457;-81
2022/03/11 12:30:48;;;;;;;13.70;10.98;;;;;;;;;;5022114;28;20084;-82
2022/03/11 12:33:19;;;;;;;14.13;11.15;;;;;;;;;;5008016;28;20101;-82
2022/03/11 12:35:46;;;;;;;15.23;11.88;;;;;;;;;;5019527;28;20042;-83
2022/03/11 12:38:13;;;;;;;12.60;11.32;;;;;;;;;;5043347;28;20460;-83
2022/03/11 12:40:40;;;;;;;12.77;11.48;;;;;;;;;;5033655;28;20103;-84
2022/03/11 12:43:08;;;;;;;13.35;10.90;;;;;;;;;;5026374;28;20152;-82
2022/03/11 12:45:41;;;;;;;11.63;10.30;;;;;;;;;;5020495;28;20408;-78
2022/03/11 12:48:08;;;;;;;11.90;10.70;;;;;;;;;;5028461;28;20038;-79
2022/03/11 12:50:34;;;;;;;15.52;11.50;;;;;;;;;;5040193;28;20045;-79
2022/03/11 12:53:01;;;;;;;12.27;11.05;;;;;;;;;;5027016;28;20123;-81
2022/03/11 12:55:30;;;;;;;12.60;11.30;;;;;;;;;;5022297;28;20053;-79
2022/03/11 12:57:57;;;;;;;12.75;11.35;;;;;;;;;;5026000;28;20042;-80
2022/03/11 13:00:24;;;;;;;12.77;11.48;;;;;;;;;;5025596;28;20473;-81
2022/03/11 13:02:51;;;;;;;13.90;11.32;;;;;;;;;;5020163;28;20073;-81
2022/03/11 13:05:21;;;;;;;13.05;11.75;;;;;;;;;;5019845;28;20128;-80
2022/03/11 13:07:48;;;;;;;12.00;10.80;;;;;;;;;;5019539;28;20033;-80
2022/03/11 13:10:23;;;;;;;12.80;11.50;;;;;;;;;;5019186;28;20704;-81
2022/03/11 13:12:50;;;;;;;13.77;11.52;;;;;;;;;;5022777;28;20489;-89
2022/03/11 13:15:21;;;;;;;12.93;11.63;;;;;;;;;;5032458;28;20046;-81
2022/03/11 13:17:48;;;;;;;14.73;10.73;;;;;;;;;;5029586;28;20095;-83
2022/03/11 13:20:33;;;;;;;12.82;11.32;;;;;;;;;;5020531;28;20045;-81
2022/03/11 13:23:17;;;;;;;13.43;10.95;;;;;;;;;;5016963;28;20049;-81
2022/03/11 13:25:54;;;;;;;14.02;11.60;;;;;;;;;;5033696;28;20048;-78
2022/03/11 13:28:22;;;;;;;13.30;11.50;;;;;;;;;;5017700;28;20504;-81
2022/03/11 13:30:51;;;;;;;13.93;12.18;;;;;;;;;;5017903;28;20050;-80
2022/03/11 13:33:20;;;;;;;14.00;11.38;;;;;;;;;;5028952;28;20151;-79
2022/03/11 13:35:47;;;;;;;12.95;11.18;;;;;;;;;;5028170;28;20065;-79
2022/03/11 13:38:32;;;;;;;14.20;11.98;;;;;;;;;;5027798;28;20041;-76
2022/03/11 13:40:58;;;;;;;13.75;12.20;;;;;;;;;;5024687;28;20041;-78
2022/03/11 13:43:25;;;;;;;13.00;11.55;;;;;;;;;;5014267;28;20042;-78
2022/03/11 13:45:54;;;;;;;13.85;11.93;;;;;;;;;;5031625;28;20041;-77
2022/03/11 13:48:27;;;;;;;11.93;10.65;;;;;;;;;;5018377;28;20033;-76
2022/03/11 13:51:03;;;;;;;13.68;12.27;;;;;;;;;;5021602;28;20592;-76
2022/03/11 13:53:30;;;;;;;13.10;11.80;;;;;;;;;;5033924;28;20378;-79
2022/03/11 13:55:59;;;;;;;12.63;11.43;;;;;;;;;;5026808;28;20449;-80
2022/03/11 13:58:26;;;;;;;12.88;11.57;;;;;;;;;;5022001;28;20561;-79
2022/03/11 14:00:53;;;;;;;15.80;14.40;;;;;;;;;;5023598;28;20041;-79
2022/03/11 14:03:20;;;;;;;11.90;10.45;;;;;;;;;;5016999;28;20045;-79
2022/03/11 14:05:48;;;;;;;12.50;11.30;;;;;;;;;;5012790;28;20053;-79
2022/03/11 14:08:21;;;;;;;12.23;10.98;;;;;;;;;;5016622;28;20053;-79
2022/03/11 14:10:48;;;;;;;11.68;10.57;;;;;;;;;;5033390;28;20046;-79
2022/03/11 14:13:15;;;;;;;12.45;11.25;;;;;;;;;;5017279;28;20042;-79
2022/03/11 14:15:47;;;;;;;11.75;10.65;;;;;;;;;;5029509;28;20038;-79
2022/03/11 14:18:14;;;;;;;12.93;11.63;;;;;;;;;;5032265;28;20124;-79
2022/03/11 14:20:41;;;;;;;11.75;10.55;;;;;;;;;;5023210;28;20462;-79
2022/03/11 14:23:07;;;;;;;11.68;10.57;;;;;;;;;;5015769;28;20046;-79
2022/03/11 14:25:33;;;;;;;12.07;10.88;;;;;;;;;;5028151;28;20057;-78
2022/03/11 14:28:00;;;;;;;11.73;10.57;;;;;;;;;;5029434;28;20033;-78
2022/03/11 14:30:26;;;;;;;12.20;10.88;;;;;;;;;;5035361;28;20048;-77